createdAt,value
2022-09-28T00:06:23.973Z,94.40
2022-09-28T00:16:24.109Z,94.10
2022-09-28T00:26:24.324Z,93.12
2022-09-28T00:36:24.370Z,91.37
2022-09-28T00:46:24.677Z,89.58
2022-09-28T00:56:24.705Z,92.64
2022-09-28T01:06:25.029Z,92.33
2022-09-28T01:16:25.129Z,89.42
2022-09-28T01:26:25.275Z,90.28
2022-09-28T01:36:25.307Z,91.61
2022-09-28T01:46:25.611Z,90.69
2022-09-28T01:56:25.645Z,88.80
2022-09-28T02:06:25.978Z,91.00
2022-09-28T02:16:26.064Z,91.31
2022-09-28T02:26:26.221Z,91.45
2022-09-28T02:36:26.244Z,91.72
2022-09-28T02:46:26.562Z,91.20
2022-09-28T02:56:26.601Z,90.08
2022-09-28T03:06:26.908Z,91.00
2022-09-28T03:16:27.005Z,88.90
2022-09-28T03:26:27.154Z,89.31
2022-09-28T03:36:27.181Z,90.48
2022-09-28T03:46:27.518Z,92.33
2022-09-28T03:56:27.609Z,92.44
2022-09-28T04:06:28.572Z,93.16
2022-09-28T04:16:27.851Z,93.87
2022-09-28T04:26:30.054Z,94.18
2022-09-28T04:36:28.104Z,94.29
2022-09-28T04:46:28.373Z,93.46
2022-09-28T04:56:28.607Z,93.36
2022-09-28T05:06:28.923Z,94.74
2022-09-28T05:16:29.006Z,95.36
2022-09-28T05:26:29.169Z,94.80
2022-09-28T05:36:29.200Z,95.83
2022-09-28T05:46:29.570Z,95.52
2022-09-28T05:56:29.637Z,94.39
2022-09-28T06:06:29.975Z,94.55
2022-09-28T06:16:30.072Z,94.76
2022-09-28T06:26:30.241Z,95.06
2022-09-28T06:36:30.255Z,95.68
2022-09-28T06:46:30.630Z,95.98
2022-09-28T06:56:32.947Z,95.57
2022-09-28T07:06:31.007Z,95.57
2022-09-28T07:16:53.717Z,95.89
2022-09-28T07:26:32.306Z,97.02
2022-09-28T07:36:31.642Z,96.91
2022-09-28T07:46:31.652Z,96.30
2022-09-28T07:56:31.989Z,96.25
2022-09-28T08:06:32.009Z,96.45
2022-09-28T08:16:32.423Z,96.35
2022-09-28T08:26:32.487Z,96.10
2022-09-28T08:36:32.785Z,95.28
2022-09-28T08:46:32.857Z,95.69
2022-09-28T08:56:32.884Z,95.28
2022-09-28T09:06:33.119Z,95.75
2022-09-28T09:16:33.425Z,96.06
2022-09-28T09:26:33.515Z,96.94
2022-09-28T09:36:33.643Z,97.50
2022-09-28T09:46:33.665Z,97.09
2022-09-28T09:56:34.016Z,96.48
2022-09-28T10:06:34.052Z,96.74
2022-09-28T10:16:34.386Z,95.47
2022-09-28T10:26:34.406Z,96.08
2022-09-28T10:36:34.687Z,95.17
2022-09-28T10:46:34.781Z,94.65
2022-09-28T10:56:34.937Z,95.63
2022-09-28T11:06:34.962Z,96.14
2022-09-28T11:16:35.341Z,97.27
2022-09-28T11:26:35.391Z,95.63
2022-09-28T11:36:35.729Z,96.00
2022-09-28T11:46:35.751Z,94.56
2022-09-28T11:56:36.079Z,94.42
2022-09-28T12:06:36.107Z,92.93
2022-09-28T12:17:04.326Z,92.42
2022-09-28T12:26:38.132Z,93.29
2022-09-28T12:36:36.678Z,90.84
2022-09-28T12:46:36.805Z,89.43
2022-09-28T12:56:37.032Z,90.41
2022-09-28T13:06:37.063Z,94.66
2022-09-28T13:16:37.380Z,95.21
2022-09-28T13:26:37.410Z,95.26
2022-09-28T13:36:37.729Z,96.27
2022-09-28T13:46:37.804Z,97.24
2022-09-28T13:56:38.077Z,97.29
2022-09-28T14:06:38.097Z,98.19
2022-09-28T14:16:38.596Z,93.93
2022-09-28T14:26:38.424Z,95.25
2022-09-28T14:36:38.878Z,95.35
2022-09-28T14:46:38.951Z,96.31
2022-09-28T14:56:39.147Z,96.92
2022-09-28T15:06:39.162Z,96.67
2022-09-28T15:16:39.507Z,96.81
2022-09-28T15:26:39.538Z,97.89
2022-09-28T15:36:39.886Z,98.35
2022-09-28T15:46:39.985Z,98.14
2022-09-28T15:56:40.177Z,98.55
2022-09-28T16:06:40.222Z,98.49
2022-09-28T16:16:45.704Z,98.54
2022-09-28T16:26:41.600Z,98.24
2022-09-28T16:36:40.980Z,98.33
2022-09-28T16:46:41.107Z,98.44
2022-09-28T16:56:41.222Z,98.49
2022-09-28T17:06:41.466Z,98.58
2022-09-28T17:26:43.044Z,99.24
2022-09-28T17:36:42.079Z,99.34
2022-09-28T17:46:42.362Z,99.34
2022-09-28T17:56:42.438Z,99.54
2022-09-28T18:06:42.858Z,99.54
2022-09-28T18:16:42.899Z,99.38
2022-09-28T18:26:43.254Z,99.44
2022-09-28T18:36:43.323Z,99.65
2022-09-28T18:46:43.727Z,99.08
2022-09-28T18:56:43.920Z,98.82
2022-09-28T19:06:44.179Z,98.61
2022-09-28T19:16:44.251Z,97.22
2022-09-28T19:26:44.637Z,95.53
2022-09-28T19:36:44.695Z,95.53
2022-09-28T19:46:45.175Z,96.45
2022-09-28T19:56:45.059Z,97.02
2022-09-28T20:06:45.360Z,97.89
2022-09-28T20:16:45.398Z,98.35
2022-09-28T20:26:45.787Z,98.25
2022-09-28T20:36:45.703Z,98.04
2022-09-28T20:46:46.127Z,98.35
2022-09-28T20:56:45.971Z,98.86
2022-09-28T21:06:46.428Z,97.62
2022-09-28T21:16:46.448Z,96.69
2022-09-28T21:26:46.869Z,96.08
2022-09-28T21:36:46.897Z,97.00
2022-09-28T21:46:47.307Z,97.82
2022-09-28T21:56:47.347Z,98.13
2022-09-28T22:06:47.663Z,98.54
2022-09-28T22:16:47.690Z,98.44
2022-09-28T22:26:48.006Z,98.18
2022-09-28T22:36:48.068Z,97.72
2022-09-28T22:46:48.386Z,97.31
2022-09-28T22:56:48.426Z,97.37
2022-09-28T23:06:48.723Z,97.06
2022-09-28T23:16:48.760Z,97.37
2022-09-28T23:26:49.068Z,97.52
2022-09-28T23:36:49.111Z,97.47
2022-09-28T23:46:49.373Z,97.72
2022-09-28T23:56:49.485Z,98.29
